createdAt,value
2022-10-10T00:01:25.027Z,3.47
2022-10-10T00:03:52.473Z,3.03
2022-10-10T00:06:20.034Z,3.53
2022-10-10T00:08:47.207Z,3.13
2022-10-10T00:11:16.536Z,3.25
2022-10-10T00:13:44.088Z,3.22
2022-10-10T00:16:11.954Z,2.67
2022-10-10T00:18:39.514Z,2.63
2022-10-10T00:21:07.526Z,2.55
2022-10-10T00:23:35.099Z,2.20
2022-10-10T00:26:06.871Z,2.55
2022-10-10T00:28:38.379Z,2.60
2022-10-10T00:31:09.128Z,1.95
2022-10-10T00:33:37.215Z,2.00
2022-10-10T00:36:05.274Z,2.63
2022-10-10T00:38:32.795Z,3.45
2022-10-10T00:41:00.133Z,1.92
2022-10-10T00:43:28.287Z,1.85
2022-10-10T00:45:55.679Z,1.80
2022-10-10T00:48:36.320Z,1.83
2022-10-10T00:51:18.294Z,2.20
2022-10-10T00:53:59.442Z,2.05
2022-10-10T00:56:33.878Z,1.77
2022-10-10T00:59:05.245Z,2.17
2022-10-10T01:01:32.191Z,2.42
2022-10-10T01:04:01.146Z,1.70
2022-10-10T01:06:28.848Z,1.77
2022-10-10T01:08:57.388Z,2.03
2022-10-10T01:11:47.970Z,2.17
2022-10-10T01:14:46.890Z,2.22
2022-10-10T01:17:52.953Z,2.70
2022-10-10T01:20:56.289Z,1.88
2022-10-10T01:23:43.110Z,1.90
2022-10-10T01:26:38.646Z,1.67
2022-10-10T01:29:28.583Z,2.10
2022-10-10T01:32:04.446Z,2.08
2022-10-10T01:37:35.198Z,2.08
2022-10-10T01:40:14.667Z,1.50
2022-10-10T01:42:51.469Z,1.58
2022-10-10T01:45:19.018Z,1.42
2022-10-10T01:47:47.881Z,1.27
2022-10-10T01:50:19.996Z,1.52
2022-10-10T01:53:58.953Z,1.42
2022-10-10T01:56:47.398Z,2.00
2022-10-10T01:59:35.999Z,1.85
2022-10-10T02:02:02.829Z,2.08
2022-10-10T02:04:57.836Z,2.08
2022-10-10T02:07:35.310Z,2.35
2022-10-10T02:10:07.283Z,2.28
2022-10-10T02:12:36.194Z,4.35
2022-10-10T02:15:15.023Z,2.67
2022-10-10T02:17:45.691Z,4.03
2022-10-10T02:20:17.198Z,2.78
2022-10-10T02:22:45.853Z,3.00
2022-10-10T02:25:14.341Z,3.03
2022-10-10T02:27:50.264Z,3.08
2022-10-10T02:30:18.418Z,2.60
2022-10-10T02:32:51.887Z,2.92
2022-10-10T02:35:24.837Z,3.63
2022-10-10T02:37:53.220Z,2.80
2022-10-10T02:40:27.420Z,2.55
2022-10-10T02:42:56.473Z,3.28
2022-10-10T02:45:23.744Z,3.67
2022-10-10T02:47:51.193Z,3.63
2022-10-10T02:50:18.383Z,3.45
2022-10-10T02:52:45.258Z,3.25
2022-10-10T02:55:12.354Z,4.05
2022-10-10T02:57:39.408Z,3.28
2022-10-10T03:00:07.632Z,4.10
2022-10-10T03:02:34.526Z,3.75
2022-10-10T03:05:01.705Z,3.88
2022-10-10T03:07:28.591Z,2.90
2022-10-10T03:09:55.460Z,3.90
2022-10-10T03:12:22.517Z,3.65
2022-10-10T03:14:49.366Z,3.53
2022-10-10T03:17:16.556Z,3.70
2022-10-10T03:19:43.867Z,2.92
2022-10-10T03:22:10.725Z,3.28
2022-10-10T03:24:37.789Z,3.22
2022-10-10T03:27:04.686Z,3.13
2022-10-10T03:29:31.560Z,2.85
2022-10-10T03:31:58.724Z,3.10
2022-10-10T03:34:25.619Z,3.00
2022-10-10T03:36:52.568Z,3.65
2022-10-10T03:39:19.465Z,3.40
2022-10-10T03:41:46.357Z,3.40
2022-10-10T03:44:13.259Z,2.85
2022-10-10T03:46:40.214Z,4.40
2022-10-10T03:49:07.146Z,3.50
2022-10-10T03:51:34.095Z,3.65
2022-10-10T03:54:00.958Z,3.45
2022-10-10T03:56:28.036Z,3.70
2022-10-10T03:58:54.879Z,3.75
2022-10-10T04:01:21.946Z,3.30
2022-10-10T04:03:52.112Z,4.22
2022-10-10T04:06:19.835Z,4.10
2022-10-10T04:08:46.732Z,4.22
2022-10-10T04:11:14.012Z,4.75
2022-10-10T04:13:40.846Z,4.40
2022-10-10T04:16:07.764Z,3.55
2022-10-10T04:18:34.628Z,4.20
2022-10-10T04:21:05.801Z,4.18
2022-10-10T04:23:33.027Z,3.80
2022-10-10T04:25:59.942Z,4.22
2022-10-10T04:28:26.884Z,3.50
2022-10-10T04:30:56.234Z,4.95
2022-10-10T04:33:24.390Z,3.80
2022-10-10T04:35:51.644Z,3.75
2022-10-10T04:38:19.815Z,4.63
2022-10-10T04:40:50.059Z,5.50
2022-10-10T04:43:17.806Z,4.63
2022-10-10T04:45:44.695Z,4.18
2022-10-10T04:48:11.578Z,5.05
2022-10-10T04:50:38.635Z,4.40
2022-10-10T04:53:05.467Z,3.17
2022-10-10T04:55:32.334Z,5.45
2022-10-10T04:57:59.180Z,4.57
2022-10-10T05:00:26.455Z,4.13
2022-10-10T05:02:53.990Z,4.18
2022-10-10T05:05:21.284Z,3.70
2022-10-10T05:07:53.055Z,4.13
2022-10-10T05:10:22.643Z,5.15
2022-10-10T05:12:49.848Z,3.95
2022-10-10T05:15:17.538Z,3.65
2022-10-10T05:17:45.648Z,3.60
2022-10-10T05:20:13.698Z,3.63
2022-10-10T05:22:40.918Z,3.38
2022-10-10T05:25:08.556Z,4.00
2022-10-10T05:27:35.465Z,3.55
2022-10-10T05:30:02.388Z,3.47
2022-10-10T05:32:29.618Z,4.15
2022-10-10T05:34:56.897Z,3.40
2022-10-10T05:37:23.830Z,3.53
2022-10-10T05:39:54.498Z,4.32
2022-10-10T05:42:22.013Z,4.03
2022-10-10T05:44:48.991Z,3.65
2022-10-10T05:47:16.157Z,3.97
2022-10-10T05:49:43.083Z,4.22
2022-10-10T05:52:10.320Z,3.88
2022-10-10T05:54:37.189Z,3.88
2022-10-10T05:57:04.394Z,4.20
2022-10-10T05:59:31.281Z,4.97
2022-10-10T06:01:58.254Z,4.05
2022-10-10T06:04:25.133Z,5.45
2022-10-10T06:06:52.090Z,4.43
2022-10-10T06:09:18.902Z,4.97
2022-10-10T06:11:45.955Z,4.32
2022-10-10T06:14:12.917Z,3.67
2022-10-10T06:16:39.864Z,4.03
2022-10-10T06:19:10.279Z,4.32
2022-10-10T06:21:39.892Z,4.80
2022-10-10T06:24:08.462Z,3.72
2022-10-10T06:26:35.457Z,3.83
2022-10-10T06:29:02.341Z,4.20
2022-10-10T06:31:29.283Z,4.70
2022-10-10T06:33:56.153Z,4.40
2022-10-10T06:36:23.030Z,4.45
2022-10-10T06:38:49.928Z,4.15
2022-10-10T06:41:16.966Z,4.93
2022-10-10T06:43:44.288Z,5.00
2022-10-10T06:46:11.808Z,5.57
2022-10-10T06:48:38.844Z,4.88
2022-10-10T06:51:09.171Z,4.97
2022-10-10T06:53:36.576Z,4.53
2022-10-10T06:56:04.898Z,5.03
2022-10-10T06:58:32.966Z,4.60
2022-10-10T07:01:04.663Z,5.13
2022-10-10T07:03:31.865Z,5.05
2022-10-10T07:06:01.499Z,4.43
2022-10-10T07:08:29.986Z,4.95
2022-10-10T07:10:57.168Z,5.28
2022-10-10T07:13:24.102Z,4.53
2022-10-10T07:15:51.043Z,5.38
2022-10-10T07:18:19.491Z,4.60
2022-10-10T07:20:47.135Z,5.00
2022-10-10T07:23:14.804Z,4.35
2022-10-10T07:25:43.194Z,4.90
2022-10-10T07:28:11.289Z,4.00
2022-10-10T07:30:43.999Z,4.60
2022-10-10T07:33:14.055Z,4.63
2022-10-10T07:35:41.425Z,4.55
2022-10-10T07:38:11.991Z,4.30
2022-10-10T07:40:41.846Z,4.63
2022-10-10T07:43:08.939Z,4.57
2022-10-10T07:45:37.318Z,4.07
2022-10-10T07:48:05.145Z,3.22
2022-10-10T07:50:32.071Z,4.07
2022-10-10T07:52:58.999Z,3.40
2022-10-10T07:55:25.951Z,3.30
2022-10-10T07:57:53.585Z,3.63
2022-10-10T08:00:21.067Z,3.70
2022-10-10T08:02:48.000Z,3.50
2022-10-10T08:05:14.955Z,3.08
2022-10-10T08:07:41.971Z,3.30
2022-10-10T08:10:09.976Z,3.08
2022-10-10T08:12:37.003Z,3.00
2022-10-10T08:15:08.012Z,3.20
2022-10-10T08:17:35.130Z,3.17
2022-10-10T08:20:02.051Z,2.78
2022-10-10T08:22:28.934Z,3.05
2022-10-10T08:24:55.879Z,3.05
2022-10-10T08:27:23.293Z,3.65
2022-10-10T08:29:50.302Z,3.22
2022-10-10T08:32:17.219Z,2.78
2022-10-10T08:34:44.645Z,2.65
2022-10-10T08:37:12.037Z,3.30
2022-10-10T08:39:39.336Z,2.85
2022-10-10T08:42:06.719Z,3.20
2022-10-10T08:45:16.249Z,3.28
2022-10-10T08:47:51.751Z,3.13
2022-10-10T08:50:31.181Z,4.00
2022-10-10T08:53:05.758Z,3.10
2022-10-10T08:55:43.562Z,3.50
2022-10-10T08:58:37.634Z,3.38
2022-10-10T09:01:15.600Z,3.70
2022-10-10T09:03:48.556Z,3.78
2022-10-10T09:06:49.505Z,4.95
2022-10-10T09:09:41.089Z,3.33
2022-10-10T09:12:38.446Z,2.50
2022-10-10T09:15:31.848Z,3.35
2022-10-10T09:18:20.190Z,3.38
2022-10-10T09:21:12.601Z,4.22
2022-10-10T09:23:55.240Z,4.15
2022-10-10T09:26:29.185Z,3.35
2022-10-10T09:29:24.771Z,3.70
2022-10-10T09:32:03.358Z,3.70
2022-10-10T09:34:52.595Z,3.97
2022-10-10T09:37:46.189Z,4.53
2022-10-10T09:40:38.367Z,3.45
2022-10-10T09:43:19.354Z,3.53
2022-10-10T09:45:58.642Z,3.05
2022-10-10T09:48:41.399Z,2.78
2022-10-10T09:51:15.861Z,3.30
2022-10-10T09:53:45.406Z,3.28
2022-10-10T09:56:19.751Z,3.25
2022-10-10T09:58:52.840Z,3.03
2022-10-10T10:01:25.302Z,3.40
2022-10-10T10:04:34.254Z,4.40
2022-10-10T10:07:29.792Z,4.32
2022-10-10T10:10:01.024Z,3.30
2022-10-10T10:12:42.549Z,3.28
2022-10-10T10:15:24.315Z,3.92
2022-10-10T10:18:22.095Z,3.15
2022-10-10T10:21:09.024Z,3.70
2022-10-10T10:23:47.885Z,3.28
2022-10-10T10:26:27.754Z,3.42
2022-10-10T10:28:57.714Z,4.00
2022-10-10T10:31:42.572Z,3.20
2022-10-10T10:34:23.543Z,3.10
2022-10-10T10:37:24.464Z,3.53
2022-10-10T10:40:44.671Z,3.38
2022-10-10T10:44:13.819Z,2.85
2022-10-10T10:47:29.130Z,3.95
2022-10-10T10:50:26.522Z,3.05
2022-10-10T10:53:15.378Z,2.92
2022-10-10T10:55:50.968Z,4.38
2022-10-10T11:01:23.188Z,3.63
2022-10-10T11:05:20.137Z,3.47
2022-10-10T11:07:20.082Z,3.60
2022-10-10T11:10:11.279Z,4.38
2022-10-10T11:12:58.310Z,5.50
2022-10-10T11:16:05.398Z,3.88
2022-10-10T11:18:43.747Z,4.22
2022-10-10T11:21:23.881Z,5.03
2022-10-10T11:24:01.884Z,3.92
2022-10-10T11:26:44.037Z,3.47
2022-10-10T11:29:34.401Z,3.72
2022-10-10T11:32:15.185Z,4.78
2022-10-10T11:34:58.931Z,4.07
2022-10-10T11:37:29.279Z,4.60
2022-10-10T11:39:58.122Z,3.75
2022-10-10T11:42:33.709Z,3.85
2022-10-10T11:47:46.405Z,2.92
2022-10-10T11:50:19.767Z,3.20
2022-10-10T11:53:19.715Z,3.60
2022-10-10T11:56:15.137Z,3.28
2022-10-10T11:58:50.790Z,3.00
2022-10-10T12:06:47.871Z,3.72
2022-10-10T12:09:28.983Z,2.85
2022-10-10T12:12:04.474Z,3.50
2022-10-10T12:14:32.914Z,3.40
2022-10-10T12:17:00.825Z,2.70
2022-10-10T12:19:29.117Z,3.90
2022-10-10T12:22:06.347Z,3.22
2022-10-10T12:24:42.244Z,3.22
2022-10-10T12:27:26.648Z,3.28
2022-10-10T12:29:56.331Z,3.28
2022-10-10T12:32:23.175Z,3.60
2022-10-10T12:34:50.006Z,2.72
2022-10-10T12:37:32.616Z,3.17
2022-10-10T12:40:05.793Z,2.72
2022-10-10T12:42:47.699Z,5.22
2022-10-10T12:45:29.955Z,3.10
2022-10-10T12:48:06.431Z,4.22
2022-10-10T12:50:40.953Z,3.30
2022-10-10T12:53:13.722Z,3.88
2022-10-10T12:55:50.344Z,3.38
2022-10-10T12:58:27.709Z,2.83
2022-10-10T13:01:19.480Z,3.72
2022-10-10T13:03:48.219Z,3.67
2022-10-10T13:06:42.792Z,3.25
2022-10-10T13:09:44.564Z,4.75
2022-10-10T13:12:29.038Z,3.42
2022-10-10T13:14:58.079Z,4.20
2022-10-10T13:17:29.503Z,5.70
2022-10-10T13:19:59.450Z,4.78
2022-10-10T13:22:29.737Z,6.18
2022-10-10T13:24:58.083Z,5.32
2022-10-10T13:27:32.293Z,4.85
2022-10-10T13:29:59.820Z,4.85
2022-10-10T13:32:33.703Z,4.97
2022-10-10T13:35:24.531Z,5.55
2022-10-10T13:37:59.655Z,4.93
2022-10-10T13:40:27.960Z,5.70
2022-10-10T13:42:55.293Z,6.43
2022-10-10T13:45:45.527Z,6.68
2022-10-10T13:48:39.353Z,6.15
2022-10-10T13:51:19.210Z,6.32
2022-10-10T13:53:53.338Z,6.78
2022-10-10T13:56:29.316Z,7.47
2022-10-10T13:59:02.112Z,6.82
2022-10-10T14:01:36.054Z,6.63
2022-10-10T14:04:18.140Z,6.88
2022-10-10T14:07:00.588Z,6.28
2022-10-10T14:09:35.694Z,7.35
2022-10-10T14:12:05.322Z,7.32
2022-10-10T14:14:47.834Z,7.20
2022-10-10T14:17:15.896Z,7.68
2022-10-10T14:19:45.049Z,8.13
2022-10-10T14:22:12.159Z,7.72
2022-10-10T14:24:39.285Z,9.15
2022-10-10T14:27:26.165Z,8.30
2022-10-10T14:29:55.996Z,7.28
2022-10-10T14:32:25.192Z,8.68
2022-10-10T14:34:53.379Z,10.35
2022-10-10T14:37:27.085Z,9.10
2022-10-10T14:39:55.423Z,8.85
2022-10-10T14:42:24.211Z,4.78
2022-10-10T14:44:51.746Z,3.25
2022-10-10T14:47:22.627Z,1.80
2022-10-10T14:49:50.335Z,1.00
2022-10-10T14:52:17.249Z,0.43
2022-10-10T14:54:44.119Z,0.50
2022-10-10T14:57:13.711Z,0.50
2022-10-10T14:59:49.374Z,0.57
2022-10-10T15:02:22.501Z,0.40
2022-10-10T15:04:50.042Z,0.60
2022-10-10T15:07:17.587Z,0.57
2022-10-10T15:10:17.652Z,0.75
2022-10-10T15:12:38.195Z,0.73
2022-10-10T15:15:07.118Z,0.50
2022-10-10T15:17:34.746Z,0.90
2022-10-10T15:20:05.300Z,1.67
2022-10-10T15:22:32.992Z,0.52
2022-10-10T15:25:00.263Z,1.00
2022-10-10T15:27:30.415Z,0.75
2022-10-10T15:29:57.421Z,0.70
2022-10-10T15:32:25.436Z,0.80
2022-10-10T15:34:53.143Z,1.10
2022-10-10T15:37:20.331Z,2.10
2022-10-10T15:39:48.006Z,0.70
2022-10-10T15:42:22.200Z,1.00
2022-10-10T15:44:50.689Z,1.20
2022-10-10T15:47:18.848Z,1.38
2022-10-10T15:49:45.906Z,1.10
2022-10-10T15:52:13.104Z,1.00
2022-10-10T15:54:40.257Z,1.70
2022-10-10T15:57:07.565Z,2.33
2022-10-10T15:59:36.856Z,1.15
2022-10-10T16:02:06.425Z,3.05
2022-10-10T16:04:33.641Z,1.25
2022-10-10T16:07:23.367Z,1.58
2022-10-10T16:09:47.409Z,1.50
2022-10-10T16:12:14.434Z,1.33
2022-10-10T16:14:41.358Z,1.83
2022-10-10T16:17:08.319Z,1.40
2022-10-10T16:19:35.376Z,1.17
2022-10-10T16:22:02.287Z,1.45
2022-10-10T16:24:29.220Z,2.10
2022-10-10T16:26:56.174Z,2.53
2022-10-10T16:29:23.134Z,1.83
2022-10-10T16:31:50.002Z,2.58
2022-10-10T16:34:17.419Z,2.55
2022-10-10T16:36:44.377Z,2.33
2022-10-10T16:39:12.908Z,1.30
2022-10-10T16:41:48.779Z,1.95
2022-10-10T16:44:17.569Z,1.90
2022-10-10T16:46:44.833Z,1.05
2022-10-10T16:49:14.204Z,1.10
2022-10-10T16:51:41.123Z,2.83
2022-10-10T16:54:08.021Z,1.83
2022-10-10T16:56:35.335Z,1.75
2022-10-10T16:59:02.553Z,3.45
2022-10-10T17:01:29.640Z,0.90
2022-10-10T17:03:59.855Z,0.90
2022-10-10T17:06:31.374Z,1.38
2022-10-10T17:09:02.729Z,1.48
2022-10-10T17:11:30.087Z,1.52
2022-10-10T17:13:57.922Z,1.23
2022-10-10T17:19:15.502Z,1.13
2022-10-10T17:21:42.380Z,2.20
2022-10-10T17:24:09.955Z,1.70
2022-10-10T17:26:37.093Z,1.25
2022-10-10T17:29:04.182Z,1.65
2022-10-10T17:31:31.674Z,3.08
2022-10-10T17:33:58.796Z,1.50
2022-10-10T17:36:27.536Z,2.53
2022-10-10T17:38:56.252Z,1.45
2022-10-10T17:41:23.869Z,1.85
2022-10-10T17:43:50.927Z,1.30
2022-10-10T17:46:41.244Z,1.27
2022-10-10T17:49:10.978Z,2.22
2022-10-10T17:51:40.518Z,1.42
2022-10-10T17:54:09.947Z,1.70
2022-10-10T17:56:37.658Z,0.95
2022-10-10T17:59:06.830Z,0.77
2022-10-10T18:01:35.715Z,1.98
2022-10-10T18:04:02.849Z,1.38
2022-10-10T18:06:31.338Z,2.00
2022-10-10T18:08:58.626Z,1.40
2022-10-10T18:11:29.885Z,1.35
2022-10-10T18:14:00.853Z,1.25
2022-10-10T18:16:34.278Z,1.10
2022-10-10T18:19:03.527Z,1.40
2022-10-10T18:21:30.561Z,1.27
2022-10-10T18:23:57.729Z,1.10
2022-10-10T18:26:27.392Z,2.22
2022-10-10T18:28:55.828Z,2.45
2022-10-10T18:31:35.728Z,1.33
2022-10-10T18:34:03.869Z,1.25
2022-10-10T18:36:34.276Z,1.42
2022-10-10T18:39:11.612Z,1.35
2022-10-10T18:41:39.087Z,1.00
2022-10-10T18:44:10.832Z,2.33
2022-10-10T18:46:38.894Z,1.05
2022-10-10T18:49:10.253Z,0.93
2022-10-10T18:51:39.746Z,0.80
2022-10-10T18:54:09.012Z,3.35
2022-10-10T18:56:39.243Z,1.73
2022-10-10T18:59:12.108Z,1.58
2022-10-10T19:01:40.255Z,1.50
2022-10-10T19:04:10.328Z,2.63
2022-10-10T19:06:39.599Z,2.28
2022-10-10T19:09:11.278Z,1.63
2022-10-10T19:11:41.709Z,1.92
2022-10-10T19:14:13.603Z,1.35
2022-10-10T19:16:41.769Z,1.30
2022-10-10T19:19:11.478Z,1.23
2022-10-10T19:21:38.941Z,1.38
2022-10-10T19:24:08.206Z,2.05
2022-10-10T19:26:35.833Z,1.55
2022-10-10T19:29:07.338Z,1.42
2022-10-10T19:31:38.051Z,1.85
2022-10-10T19:34:05.281Z,2.83
2022-10-10T19:36:32.834Z,1.30
2022-10-10T19:39:01.689Z,1.05
2022-10-10T19:41:29.560Z,0.98
2022-10-10T19:43:58.566Z,2.03
2022-10-10T19:46:27.407Z,1.38
2022-10-10T19:48:58.081Z,2.08
2022-10-10T19:51:27.510Z,2.60
2022-10-10T19:53:55.260Z,2.08
2022-10-10T19:56:24.666Z,1.70
2022-10-10T19:58:54.518Z,2.53
2022-10-10T20:01:28.883Z,1.73
2022-10-10T20:03:57.137Z,2.92
2022-10-10T20:06:24.138Z,2.38
2022-10-10T20:08:51.080Z,2.78
2022-10-10T20:11:20.268Z,2.75
2022-10-10T20:13:49.519Z,3.85
2022-10-10T20:16:16.563Z,3.67
2022-10-10T20:18:44.007Z,2.85
2022-10-10T20:21:19.120Z,2.78
2022-10-10T20:23:48.076Z,3.13
2022-10-10T20:26:22.100Z,3.30
2022-10-10T20:28:51.074Z,3.05
2022-10-10T20:31:21.995Z,1.70
2022-10-10T20:33:51.150Z,1.75
2022-10-10T20:36:19.014Z,2.03
2022-10-10T20:38:55.708Z,2.70
2022-10-10T20:41:25.203Z,2.30
2022-10-10T20:44:00.676Z,2.20
2022-10-10T20:46:30.738Z,1.90
2022-10-10T20:49:00.037Z,2.20
2022-10-10T20:51:28.065Z,4.63
2022-10-10T20:54:01.822Z,2.75
2022-10-10T20:56:30.376Z,2.10
2022-10-10T20:58:57.513Z,2.47
2022-10-10T21:01:27.993Z,1.95
2022-10-10T21:03:55.276Z,2.63
2022-10-10T21:06:28.437Z,3.42
2022-10-10T21:08:56.059Z,4.05
2022-10-10T21:11:23.879Z,2.47
2022-10-10T21:13:57.201Z,1.88
2022-10-10T21:16:27.980Z,3.33
2022-10-10T21:18:57.900Z,3.95
2022-10-10T21:21:28.120Z,2.95
2022-10-10T21:23:56.634Z,3.70
2022-10-10T21:26:25.825Z,2.75
2022-10-10T21:28:53.520Z,3.55
2022-10-10T21:31:24.380Z,3.50
2022-10-10T21:33:51.336Z,4.55
2022-10-10T21:36:20.480Z,3.33
2022-10-10T21:38:47.556Z,3.47
2022-10-10T21:41:19.440Z,4.32
2022-10-10T21:43:51.416Z,3.50
2022-10-10T21:46:23.342Z,2.83
2022-10-10T21:48:52.331Z,3.33
2022-10-10T21:51:20.805Z,3.00
2022-10-10T21:53:48.121Z,4.07
2022-10-10T21:56:15.109Z,4.03
2022-10-10T21:58:45.423Z,4.53
2022-10-10T22:01:22.408Z,4.13
2022-10-10T22:03:52.829Z,4.38
2022-10-10T22:06:22.571Z,3.60
2022-10-10T22:08:52.354Z,3.45
2022-10-10T22:11:23.751Z,4.85
2022-10-10T22:13:50.995Z,4.32
2022-10-10T22:16:18.488Z,3.65
2022-10-10T22:18:45.770Z,4.50
2022-10-10T22:21:16.351Z,4.70
2022-10-10T22:23:44.677Z,4.30
2022-10-10T22:26:14.801Z,4.00
2022-10-10T22:28:41.924Z,4.22
2022-10-10T22:31:17.014Z,4.47
2022-10-10T22:33:44.380Z,4.93
2022-10-10T22:36:12.340Z,4.75
2022-10-10T22:38:42.800Z,3.10
2022-10-10T22:41:11.837Z,3.55
2022-10-10T22:43:39.129Z,4.18
2022-10-10T22:46:06.789Z,4.22
2022-10-10T22:48:34.198Z,3.55
2022-10-10T22:51:12.443Z,4.72
2022-10-10T22:53:41.505Z,3.88
2022-10-10T22:56:09.965Z,3.78
2022-10-10T22:58:37.104Z,4.57
2022-10-10T23:01:11.886Z,3.65
2022-10-10T23:03:39.464Z,4.10
2022-10-10T23:06:07.026Z,4.05
2022-10-10T23:08:34.558Z,3.10
2022-10-10T23:11:01.789Z,4.25
2022-10-10T23:13:29.072Z,4.18
2022-10-10T23:15:56.162Z,4.43
2022-10-10T23:18:23.379Z,4.15
2022-10-10T23:20:51.133Z,3.95
2022-10-10T23:23:18.874Z,4.18
2022-10-10T23:25:47.586Z,4.18
2022-10-10T23:28:16.285Z,4.80
2022-10-10T23:30:45.059Z,3.22
2022-10-10T23:33:12.588Z,3.03
2022-10-10T23:35:39.634Z,4.75
2022-10-10T23:38:06.591Z,4.18
2022-10-10T23:40:34.134Z,3.50
2022-10-10T23:43:01.136Z,3.20
2022-10-10T23:45:28.204Z,2.88
2022-10-10T23:47:55.106Z,3.05
2022-10-10T23:50:21.999Z,3.55
2022-10-10T23:52:48.879Z,2.95
2022-10-10T23:55:15.858Z,3.58
2022-10-10T23:57:42.751Z,2.65
